sensor_id;sensor_type;location;lat;lon;timestamp;P1;durP1;ratioP1;P2;durP2;ratioP2
9783;SDS011;4931;44.874;-1.092;2023-10-13T00:01:20;29.80;;;16.20;;
9783;SDS011;4931;44.874;-1.092;2023-10-13T00:03:46;19.40;;;13.57;;
9783;SDS011;4931;44.874;-1.092;2023-10-13T00:06:11;23.52;;;13.43;;
9783;SDS011;4931;44.874;-1.092;2023-10-13T00:08:37;21.20;;;12.52;;
9783;SDS011;4931;44.874;-1.092;2023-10-13T00:11:03;23.40;;;12.50;;
9783;SDS011;4931;44.874;-1.092;2023-10-13T00:13:29;26.98;;;11.00;;
9783;SDS011;4931;44.874;-1.092;2023-10-13T00:16:05;16.92;;;10.23;;
9783;SDS011;4931;44.874;-1.092;2023-10-13T00:18:34;22.08;;;10.07;;
9783;SDS011;4931;44.874;-1.092;2023-10-13T00:21:06;19.45;;;10.25;;
9783;SDS011;4931;44.874;-1.092;2023-10-13T00:23:37;22.58;;;10.32;;
9783;SDS011;4931;44.874;-1.092;2023-10-13T00:26:04;20.02;;;9.85;;
9783;SDS011;4931;44.874;-1.092;2023-10-13T00:28:34;20.77;;;9.07;;
9783;SDS011;4931;44.874;-1.092;2023-10-13T00:31:22;20.63;;;9.05;;
9783;SDS011;4931;44.874;-1.092;2023-10-13T00:33:48;22.27;;;8.52;;
9783;SDS011;4931;44.874;-1.092;2023-10-13T00:36:16;18.15;;;8.23;;
9783;SDS011;4931;44.874;-1.092;2023-10-13T00:38:44;23.47;;;8.83;;
9783;SDS011;4931;44.874;-1.092;2023-10-13T00:41:14;22.23;;;8.43;;
9783;SDS011;4931;44.874;-1.092;2023-10-13T00:43:45;21.73;;;8.43;;
9783;SDS011;4931;44.874;-1.092;2023-10-13T00:46:28;18.83;;;8.63;;
9783;SDS011;4931;44.874;-1.092;2023-10-13T00:48:58;20.58;;;8.38;;
9783;SDS011;4931;44.874;-1.092;2023-10-13T00:51:24;24.55;;;8.45;;
9783;SDS011;4931;44.874;-1.092;2023-10-13T00:54:06;24.85;;;9.20;;
9783;SDS011;4931;44.874;-1.092;2023-10-13T00:56:39;20.70;;;8.57;;
9783;SDS011;4931;44.874;-1.092;2023-10-13T00:59:12;16.73;;;8.68;;
9783;SDS011;4931;44.874;-1.092;2023-10-13T01:01:39;18.52;;;8.40;;
9783;SDS011;4931;44.874;-1.092;2023-10-13T01:04:08;19.35;;;8.07;;
9783;SDS011;4931;44.874;-1.092;2023-10-13T01:06:37;21.50;;;8.80;;
9783;SDS011;4931;44.874;-1.092;2023-10-13T01:09:03;24.15;;;8.52;;
9783;SDS011;4931;44.874;-1.092;2023-10-13T01:11:48;18.23;;;8.75;;
9783;SDS011;4931;44.874;-1.092;2023-10-13T01:14:20;16.50;;;8.95;;
9783;SDS011;4931;44.874;-1.092;2023-10-13T01:16:48;21.77;;;8.95;;
9783;SDS011;4931;44.874;-1.092;2023-10-13T01:19:20;15.57;;;8.25;;
9783;SDS011;4931;44.874;-1.092;2023-10-13T01:21:52;17.40;;;8.52;;
9783;SDS011;4931;44.874;-1.092;2023-10-13T01:24:29;20.63;;;8.48;;
9783;SDS011;4931;44.874;-1.092;2023-10-13T01:27:02;20.73;;;7.95;;
9783;SDS011;4931;44.874;-1.092;2023-10-13T01:29:45;17.55;;;8.70;;
9783;SDS011;4931;44.874;-1.092;2023-10-13T01:34:44;18.77;;;8.30;;
9783;SDS011;4931;44.874;-1.092;2023-10-13T01:37:12;22.23;;;8.73;;
9783;SDS011;4931;44.874;-1.092;2023-10-13T01:39:37;17.60;;;8.27;;
9783;SDS011;4931;44.874;-1.092;2023-10-13T01:42:03;21.23;;;8.43;;
9783;SDS011;4931;44.874;-1.092;2023-10-13T01:44:28;16.98;;;8.15;;
9783;SDS011;4931;44.874;-1.092;2023-10-13T01:46:59;20.33;;;8.38;;
9783;SDS011;4931;44.874;-1.092;2023-10-13T01:49:31;18.23;;;8.80;;
9783;SDS011;4931;44.874;-1.092;2023-10-13T01:52:18;16.35;;;8.40;;
9783;SDS011;4931;44.874;-1.092;2023-10-13T01:54:43;17.27;;;8.60;;
9783;SDS011;4931;44.874;-1.092;2023-10-13T01:57:10;19.42;;;8.23;;
9783;SDS011;4931;44.874;-1.092;2023-10-13T01:59:51;16.23;;;8.57;;
9783;SDS011;4931;44.874;-1.092;2023-10-13T02:02:16;19.88;;;8.07;;
9783;SDS011;4931;44.874;-1.092;2023-10-13T02:04:53;18.92;;;8.15;;
9783;SDS011;4931;44.874;-1.092;2023-10-13T02:07:22;17.58;;;8.65;;
9783;SDS011;4931;44.874;-1.092;2023-10-13T02:09:55;18.08;;;7.88;;
9783;SDS011;4931;44.874;-1.092;2023-10-13T02:12:21;19.02;;;8.52;;
9783;SDS011;4931;44.874;-1.092;2023-10-13T02:15:00;17.52;;;8.32;;
9783;SDS011;4931;44.874;-1.092;2023-10-13T02:17:26;17.80;;;8.52;;
9783;SDS011;4931;44.874;-1.092;2023-10-13T02:19:51;20.73;;;9.23;;
9783;SDS011;4931;44.874;-1.092;2023-10-13T02:22:19;16.33;;;9.02;;
9783;SDS011;4931;44.874;-1.092;2023-10-13T02:24:52;17.00;;;8.95;;
9783;SDS011;4931;44.874;-1.092;2023-10-13T02:27:18;16.33;;;8.27;;
9783;SDS011;4931;44.874;-1.092;2023-10-13T02:29:49;17.35;;;8.70;;
9783;SDS011;4931;44.874;-1.092;2023-10-13T02:32:14;22.90;;;9.43;;
9783;SDS011;4931;44.874;-1.092;2023-10-13T02:34:49;14.65;;;8.88;;
9783;SDS011;4931;44.874;-1.092;2023-10-13T02:37:14;16.38;;;8.77;;
9783;SDS011;4931;44.874;-1.092;2023-10-13T02:39:41;18.80;;;8.52;;
9783;SDS011;4931;44.874;-1.092;2023-10-13T02:42:09;14.90;;;8.77;;
9783;SDS011;4931;44.874;-1.092;2023-10-13T02:44:48;19.38;;;9.00;;
9783;SDS011;4931;44.874;-1.092;2023-10-13T02:47:14;22.30;;;9.30;;
9783;SDS011;4931;44.874;-1.092;2023-10-13T02:49:39;14.23;;;9.18;;
9783;SDS011;4931;44.874;-1.092;2023-10-13T02:52:11;16.27;;;8.68;;
9783;SDS011;4931;44.874;-1.092;2023-10-13T02:54:38;15.23;;;8.52;;
9783;SDS011;4931;44.874;-1.092;2023-10-13T02:57:22;23.98;;;9.13;;
9783;SDS011;4931;44.874;-1.092;2023-10-13T02:59:48;17.40;;;8.18;;
9783;SDS011;4931;44.874;-1.092;2023-10-13T03:02:21;17.30;;;8.75;;
9783;SDS011;4931;44.874;-1.092;2023-10-13T03:04:58;15.77;;;8.90;;
9783;SDS011;4931;44.874;-1.092;2023-10-13T03:07:38;16.75;;;9.85;;
9783;SDS011;4931;44.874;-1.092;2023-10-13T03:10:07;18.27;;;9.38;;
9783;SDS011;4931;44.874;-1.092;2023-10-13T03:12:37;21.13;;;9.38;;
9783;SDS011;4931;44.874;-1.092;2023-10-13T03:15:06;14.25;;;8.18;;
9783;SDS011;4931;44.874;-1.092;2023-10-13T03:17:42;24.17;;;10.27;;
9783;SDS011;4931;44.874;-1.092;2023-10-13T03:20:12;24.05;;;9.77;;
9783;SDS011;4931;44.874;-1.092;2023-10-13T03:22:39;17.77;;;9.15;;
9783;SDS011;4931;44.874;-1.092;2023-10-13T03:25:05;17.98;;;9.43;;
9783;SDS011;4931;44.874;-1.092;2023-10-13T03:27:32;22.05;;;9.50;;
9783;SDS011;4931;44.874;-1.092;2023-10-13T03:30:27;20.65;;;9.15;;
9783;SDS011;4931;44.874;-1.092;2023-10-13T03:33:04;26.48;;;9.30;;
9783;SDS011;4931;44.874;-1.092;2023-10-13T03:35:36;27.88;;;8.77;;
9783;SDS011;4931;44.874;-1.092;2023-10-13T03:38:03;19.52;;;9.18;;
9783;SDS011;4931;44.874;-1.092;2023-10-13T03:40:29;19.48;;;9.30;;
9783;SDS011;4931;44.874;-1.092;2023-10-13T03:42:56;20.75;;;9.45;;
9783;SDS011;4931;44.874;-1.092;2023-10-13T03:45:38;21.83;;;9.10;;
9783;SDS011;4931;44.874;-1.092;2023-10-13T03:48:05;21.35;;;10.20;;
9783;SDS011;4931;44.874;-1.092;2023-10-13T03:50:36;20.15;;;8.82;;
9783;SDS011;4931;44.874;-1.092;2023-10-13T03:53:11;19.42;;;9.52;;
9783;SDS011;4931;44.874;-1.092;2023-10-13T03:55:38;19.70;;;9.88;;
9783;SDS011;4931;44.874;-1.092;2023-10-13T03:58:04;21.33;;;9.73;;
9783;SDS011;4931;44.874;-1.092;2023-10-13T04:00:29;22.95;;;9.85;;
9783;SDS011;4931;44.874;-1.092;2023-10-13T04:02:56;23.52;;;9.65;;
9783;SDS011;4931;44.874;-1.092;2023-10-13T04:05:31;23.13;;;10.10;;
9783;SDS011;4931;44.874;-1.092;2023-10-13T04:08:10;23.13;;;9.50;;
9783;SDS011;4931;44.874;-1.092;2023-10-13T04:10:54;18.20;;;9.07;;
9783;SDS011;4931;44.874;-1.092;2023-10-13T04:13:22;20.88;;;8.55;;
9783;SDS011;4931;44.874;-1.092;2023-10-13T04:16:07;20.38;;;9.15;;
9783;SDS011;4931;44.874;-1.092;2023-10-13T04:18:49;17.60;;;8.43;;
9783;SDS011;4931;44.874;-1.092;2023-10-13T04:21:24;18.60;;;8.73;;
9783;SDS011;4931;44.874;-1.092;2023-10-13T04:24:11;15.65;;;8.65;;
9783;SDS011;4931;44.874;-1.092;2023-10-13T04:26:47;16.48;;;8.20;;
9783;SDS011;4931;44.874;-1.092;2023-10-13T04:29:32;23.42;;;8.35;;
9783;SDS011;4931;44.874;-1.092;2023-10-13T04:32:16;21.25;;;9.15;;
9783;SDS011;4931;44.874;-1.092;2023-10-13T04:34:57;16.00;;;8.13;;
9783;SDS011;4931;44.874;-1.092;2023-10-13T04:37:40;18.30;;;8.23;;
9783;SDS011;4931;44.874;-1.092;2023-10-13T04:40:26;16.38;;;8.40;;
9783;SDS011;4931;44.874;-1.092;2023-10-13T04:43:00;16.95;;;7.88;;
9783;SDS011;4931;44.874;-1.092;2023-10-13T04:45:30;17.90;;;7.93;;
9783;SDS011;4931;44.874;-1.092;2023-10-13T04:47:56;17.92;;;7.55;;
9783;SDS011;4931;44.874;-1.092;2023-10-13T04:50:40;18.85;;;7.55;;
9783;SDS011;4931;44.874;-1.092;2023-10-13T04:53:13;12.88;;;7.82;;
9783;SDS011;4931;44.874;-1.092;2023-10-13T04:55:57;14.00;;;7.30;;
9783;SDS011;4931;44.874;-1.092;2023-10-13T04:58:43;16.88;;;7.45;;
9783;SDS011;4931;44.874;-1.092;2023-10-13T05:01:27;17.98;;;7.55;;
9783;SDS011;4931;44.874;-1.092;2023-10-13T05:03:53;17.05;;;7.40;;
9783;SDS011;4931;44.874;-1.092;2023-10-13T05:06:18;15.05;;;7.75;;
9783;SDS011;4931;44.874;-1.092;2023-10-13T05:09:03;15.52;;;7.15;;
9783;SDS011;4931;44.874;-1.092;2023-10-13T05:11:47;14.88;;;7.25;;
9783;SDS011;4931;44.874;-1.092;2023-10-13T05:14:34;13.85;;;6.85;;
9783;SDS011;4931;44.874;-1.092;2023-10-13T05:17:18;19.35;;;7.07;;
9783;SDS011;4931;44.874;-1.092;2023-10-13T05:20:02;22.65;;;7.85;;
9783;SDS011;4931;44.874;-1.092;2023-10-13T05:22:46;16.45;;;7.20;;
9783;SDS011;4931;44.874;-1.092;2023-10-13T05:25:35;20.73;;;7.60;;
9783;SDS011;4931;44.874;-1.092;2023-10-13T05:28:19;17.95;;;7.00;;
9783;SDS011;4931;44.874;-1.092;2023-10-13T05:31:04;15.18;;;7.50;;
9783;SDS011;4931;44.874;-1.092;2023-10-13T05:33:47;16.10;;;7.40;;
9783;SDS011;4931;44.874;-1.092;2023-10-13T05:36:32;16.10;;;7.72;;
9783;SDS011;4931;44.874;-1.092;2023-10-13T05:39:17;17.58;;;7.32;;
9783;SDS011;4931;44.874;-1.092;2023-10-13T05:42:01;18.20;;;8.00;;
9783;SDS011;4931;44.874;-1.092;2023-10-13T05:44:45;17.48;;;7.50;;
9783;SDS011;4931;44.874;-1.092;2023-10-13T05:47:29;16.70;;;7.85;;
9783;SDS011;4931;44.874;-1.092;2023-10-13T05:50:04;14.10;;;7.57;;
9783;SDS011;4931;44.874;-1.092;2023-10-13T05:52:38;17.15;;;7.18;;
9783;SDS011;4931;44.874;-1.092;2023-10-13T05:55:25;15.80;;;7.30;;
9783;SDS011;4931;44.874;-1.092;2023-10-13T05:58:10;19.58;;;8.23;;
9783;SDS011;4931;44.874;-1.092;2023-10-13T06:00:55;13.20;;;7.55;;
9783;SDS011;4931;44.874;-1.092;2023-10-13T06:03:38;18.45;;;7.65;;
9783;SDS011;4931;44.874;-1.092;2023-10-13T06:06:22;15.30;;;7.53;;
9783;SDS011;4931;44.874;-1.092;2023-10-13T06:09:06;16.25;;;7.32;;
9783;SDS011;4931;44.874;-1.092;2023-10-13T06:11:50;19.77;;;7.57;;
9783;SDS011;4931;44.874;-1.092;2023-10-13T06:14:34;14.82;;;7.15;;
9783;SDS011;4931;44.874;-1.092;2023-10-13T06:17:18;21.73;;;7.63;;
9783;SDS011;4931;44.874;-1.092;2023-10-13T06:20:02;18.40;;;7.60;;
9783;SDS011;4931;44.874;-1.092;2023-10-13T06:22:49;21.77;;;7.85;;
9783;SDS011;4931;44.874;-1.092;2023-10-13T06:25:33;13.55;;;7.10;;
9783;SDS011;4931;44.874;-1.092;2023-10-13T06:28:18;19.48;;;7.57;;
9783;SDS011;4931;44.874;-1.092;2023-10-13T06:31:03;19.25;;;8.05;;
9783;SDS011;4931;44.874;-1.092;2023-10-13T06:33:33;17.35;;;7.95;;
9783;SDS011;4931;44.874;-1.092;2023-10-13T06:36:02;12.57;;;7.13;;
9783;SDS011;4931;44.874;-1.092;2023-10-13T06:38:29;18.30;;;8.07;;
9783;SDS011;4931;44.874;-1.092;2023-10-13T06:41:17;18.67;;;7.43;;
9783;SDS011;4931;44.874;-1.092;2023-10-13T06:43:55;16.42;;;7.28;;
9783;SDS011;4931;44.874;-1.092;2023-10-13T06:46:30;18.52;;;8.07;;
9783;SDS011;4931;44.874;-1.092;2023-10-13T06:48:59;19.83;;;7.75;;
9783;SDS011;4931;44.874;-1.092;2023-10-13T06:51:28;20.70;;;8.10;;
9783;SDS011;4931;44.874;-1.092;2023-10-13T06:54:02;19.08;;;7.20;;
9783;SDS011;4931;44.874;-1.092;2023-10-13T06:56:28;19.92;;;7.50;;
9783;SDS011;4931;44.874;-1.092;2023-10-13T06:58:54;17.27;;;7.30;;
9783;SDS011;4931;44.874;-1.092;2023-10-13T07:01:25;18.05;;;7.60;;
9783;SDS011;4931;44.874;-1.092;2023-10-13T07:03:53;17.05;;;7.95;;
9783;SDS011;4931;44.874;-1.092;2023-10-13T07:06:19;15.68;;;6.65;;
9783;SDS011;4931;44.874;-1.092;2023-10-13T07:08:47;16.65;;;7.38;;
9783;SDS011;4931;44.874;-1.092;2023-10-13T07:11:29;19.83;;;7.07;;
9783;SDS011;4931;44.874;-1.092;2023-10-13T07:14:07;17.38;;;6.95;;
9783;SDS011;4931;44.874;-1.092;2023-10-13T07:16:42;15.43;;;6.88;;
9783;SDS011;4931;44.874;-1.092;2023-10-13T07:19:12;14.30;;;6.72;;
9783;SDS011;4931;44.874;-1.092;2023-10-13T07:21:42;16.63;;;6.40;;
9783;SDS011;4931;44.874;-1.092;2023-10-13T07:24:11;12.73;;;6.32;;
9783;SDS011;4931;44.874;-1.092;2023-10-13T07:26:40;18.45;;;7.03;;
9783;SDS011;4931;44.874;-1.092;2023-10-13T07:31:37;14.98;;;6.90;;
9783;SDS011;4931;44.874;-1.092;2023-10-13T07:34:04;12.95;;;6.90;;
9783;SDS011;4931;44.874;-1.092;2023-10-13T07:36:37;15.98;;;6.53;;
9783;SDS011;4931;44.874;-1.092;2023-10-13T07:39:08;11.02;;;6.53;;
9783;SDS011;4931;44.874;-1.092;2023-10-13T07:41:49;13.38;;;7.03;;
9783;SDS011;4931;44.874;-1.092;2023-10-13T07:44:19;15.85;;;7.10;;
9783;SDS011;4931;44.874;-1.092;2023-10-13T07:46:49;16.50;;;7.45;;
9783;SDS011;4931;44.874;-1.092;2023-10-13T07:49:34;13.20;;;7.05;;
9783;SDS011;4931;44.874;-1.092;2023-10-13T07:52:03;16.15;;;7.85;;
9783;SDS011;4931;44.874;-1.092;2023-10-13T07:54:52;17.15;;;8.68;;
9783;SDS011;4931;44.874;-1.092;2023-10-13T07:57:36;17.50;;;8.63;;
9783;SDS011;4931;44.874;-1.092;2023-10-13T08:00:18;24.25;;;9.05;;
9783;SDS011;4931;44.874;-1.092;2023-10-13T08:03:02;17.92;;;9.20;;
9783;SDS011;4931;44.874;-1.092;2023-10-13T08:05:40;17.02;;;9.25;;
9783;SDS011;4931;44.874;-1.092;2023-10-13T08:08:32;21.15;;;10.20;;
9783;SDS011;4931;44.874;-1.092;2023-10-13T08:11:06;19.05;;;10.50;;
9783;SDS011;4931;44.874;-1.092;2023-10-13T08:13:51;16.35;;;9.82;;
9783;SDS011;4931;44.874;-1.092;2023-10-13T08:16:41;18.50;;;10.80;;
9783;SDS011;4931;44.874;-1.092;2023-10-13T08:19:16;17.83;;;10.77;;
9783;SDS011;4931;44.874;-1.092;2023-10-13T08:21:43;20.15;;;11.90;;
9783;SDS011;4931;44.874;-1.092;2023-10-13T08:24:24;22.38;;;10.68;;
9783;SDS011;4931;44.874;-1.092;2023-10-13T08:27:11;21.52;;;11.07;;
9783;SDS011;4931;44.874;-1.092;2023-10-13T08:29:58;20.48;;;10.95;;
9783;SDS011;4931;44.874;-1.092;2023-10-13T08:32:27;18.95;;;10.85;;
9783;SDS011;4931;44.874;-1.092;2023-10-13T08:34:57;22.65;;;10.93;;
9783;SDS011;4931;44.874;-1.092;2023-10-13T08:37:34;20.92;;;10.38;;
9783;SDS011;4931;44.874;-1.092;2023-10-13T08:40:22;21.23;;;11.35;;
9783;SDS011;4931;44.874;-1.092;2023-10-13T08:43:06;15.50;;;10.20;;
9783;SDS011;4931;44.874;-1.092;2023-10-13T08:45:39;17.77;;;9.45;;
9783;SDS011;4931;44.874;-1.092;2023-10-13T08:48:11;21.00;;;8.63;;
9783;SDS011;4931;44.874;-1.092;2023-10-13T08:53:22;19.92;;;8.80;;
9783;SDS011;4931;44.874;-1.092;2023-10-13T08:55:58;15.35;;;8.02;;
9783;SDS011;4931;44.874;-1.092;2023-10-13T08:58:48;25.20;;;7.95;;
9783;SDS011;4931;44.874;-1.092;2023-10-13T09:01:18;13.20;;;7.65;;
9783;SDS011;4931;44.874;-1.092;2023-10-13T09:04:13;14.00;;;7.38;;
9783;SDS011;4931;44.874;-1.092;2023-10-13T09:06:49;14.02;;;6.88;;
9783;SDS011;4931;44.874;-1.092;2023-10-13T09:12:22;13.93;;;6.55;;
9783;SDS011;4931;44.874;-1.092;2023-10-13T09:17:30;16.27;;;6.50;;
9783;SDS011;4931;44.874;-1.092;2023-10-13T09:20:05;11.75;;;6.28;;
9783;SDS011;4931;44.874;-1.092;2023-10-13T09:22:47;14.05;;;6.55;;
9783;SDS011;4931;44.874;-1.092;2023-10-13T09:25:26;13.30;;;6.60;;
9783;SDS011;4931;44.874;-1.092;2023-10-13T09:30:42;11.00;;;6.20;;
9783;SDS011;4931;44.874;-1.092;2023-10-13T09:33:08;13.07;;;6.40;;
9783;SDS011;4931;44.874;-1.092;2023-10-13T09:35:33;15.80;;;6.00;;
9783;SDS011;4931;44.874;-1.092;2023-10-13T09:38:02;13.70;;;5.85;;
9783;SDS011;4931;44.874;-1.092;2023-10-13T09:40:29;16.50;;;5.97;;
9783;SDS011;4931;44.874;-1.092;2023-10-13T09:42:58;14.27;;;5.68;;
9783;SDS011;4931;44.874;-1.092;2023-10-13T09:45:34;14.95;;;5.90;;
9783;SDS011;4931;44.874;-1.092;2023-10-13T09:48:11;13.10;;;5.70;;
9783;SDS011;4931;44.874;-1.092;2023-10-13T09:50:47;23.05;;;7.10;;
9783;SDS011;4931;44.874;-1.092;2023-10-13T09:53:13;15.27;;;5.75;;
9783;SDS011;4931;44.874;-1.092;2023-10-13T09:58:26;13.10;;;5.82;;
9783;SDS011;4931;44.874;-1.092;2023-10-13T10:01:00;12.65;;;5.60;;
9783;SDS011;4931;44.874;-1.092;2023-10-13T10:03:46;15.07;;;6.30;;
9783;SDS011;4931;44.874;-1.092;2023-10-13T10:06:38;12.80;;;5.72;;
9783;SDS011;4931;44.874;-1.092;2023-10-13T10:09:08;14.30;;;6.00;;
9783;SDS011;4931;44.874;-1.092;2023-10-13T10:17:26;17.60;;;6.20;;
9783;SDS011;4931;44.874;-1.092;2023-10-13T10:19:55;15.65;;;6.30;;
9783;SDS011;4931;44.874;-1.092;2023-10-13T10:22:32;14.27;;;5.82;;
9783;SDS011;4931;44.874;-1.092;2023-10-13T10:25:05;12.88;;;5.82;;
9783;SDS011;4931;44.874;-1.092;2023-10-13T10:27:59;16.13;;;6.15;;
9783;SDS011;4931;44.874;-1.092;2023-10-13T10:30:33;13.15;;;5.70;;
9783;SDS011;4931;44.874;-1.092;2023-10-13T10:33:00;18.20;;;5.43;;
9783;SDS011;4931;44.874;-1.092;2023-10-13T10:35:33;21.33;;;5.80;;
9783;SDS011;4931;44.874;-1.092;2023-10-13T10:38:08;25.15;;;5.57;;
9783;SDS011;4931;44.874;-1.092;2023-10-13T10:40:49;23.20;;;5.70;;
9783;SDS011;4931;44.874;-1.092;2023-10-13T10:43:29;12.23;;;5.22;;
9783;SDS011;4931;44.874;-1.092;2023-10-13T10:48:39;16.73;;;5.18;;
9783;SDS011;4931;44.874;-1.092;2023-10-13T10:51:08;12.25;;;5.10;;
9783;SDS011;4931;44.874;-1.092;2023-10-13T10:53:50;12.50;;;5.60;;
9783;SDS011;4931;44.874;-1.092;2023-10-13T10:56:25;14.73;;;5.35;;
9783;SDS011;4931;44.874;-1.092;2023-10-13T10:59:01;14.35;;;5.32;;
9783;SDS011;4931;44.874;-1.092;2023-10-13T11:01:29;17.77;;;5.55;;
9783;SDS011;4931;44.874;-1.092;2023-10-13T11:04:04;12.98;;;5.15;;
9783;SDS011;4931;44.874;-1.092;2023-10-13T11:09:07;11.15;;;4.85;;
9783;SDS011;4931;44.874;-1.092;2023-10-13T11:11:52;14.90;;;5.40;;
9783;SDS011;4931;44.874;-1.092;2023-10-13T11:14:28;14.35;;;5.60;;
9783;SDS011;4931;44.874;-1.092;2023-10-13T11:16:55;13.82;;;5.43;;
9783;SDS011;4931;44.874;-1.092;2023-10-13T11:19:39;15.00;;;5.45;;
9783;SDS011;4931;44.874;-1.092;2023-10-13T11:22:15;15.20;;;5.22;;
9783;SDS011;4931;44.874;-1.092;2023-10-13T11:24:57;17.42;;;5.75;;
9783;SDS011;4931;44.874;-1.092;2023-10-13T11:27:30;15.18;;;5.72;;
9783;SDS011;4931;44.874;-1.092;2023-10-13T11:30:23;17.77;;;5.47;;
9783;SDS011;4931;44.874;-1.092;2023-10-13T11:32:57;15.13;;;5.70;;
9783;SDS011;4931;44.874;-1.092;2023-10-13T11:35:22;18.45;;;5.72;;
9783;SDS011;4931;44.874;-1.092;2023-10-13T11:37:51;13.27;;;5.90;;
9783;SDS011;4931;44.874;-1.092;2023-10-13T11:40:38;16.33;;;5.77;;
9783;SDS011;4931;44.874;-1.092;2023-10-13T11:43:33;14.35;;;5.32;;
9783;SDS011;4931;44.874;-1.092;2023-10-13T11:46:21;15.88;;;5.70;;
9783;SDS011;4931;44.874;-1.092;2023-10-13T11:49:00;11.68;;;5.30;;
9783;SDS011;4931;44.874;-1.092;2023-10-13T11:51:31;16.35;;;6.15;;
9783;SDS011;4931;44.874;-1.092;2023-10-13T11:54:00;13.07;;;5.50;;
9783;SDS011;4931;44.874;-1.092;2023-10-13T11:56:25;11.98;;;5.70;;
9783;SDS011;4931;44.874;-1.092;2023-10-13T11:58:51;18.67;;;6.22;;
9783;SDS011;4931;44.874;-1.092;2023-10-13T12:01:17;16.33;;;5.60;;
9783;SDS011;4931;44.874;-1.092;2023-10-13T12:03:44;14.68;;;6.03;;
9783;SDS011;4931;44.874;-1.092;2023-10-13T12:06:29;24.00;;;6.47;;
9783;SDS011;4931;44.874;-1.092;2023-10-13T12:09:08;16.65;;;6.15;;
9783;SDS011;4931;44.874;-1.092;2023-10-13T12:11:38;16.88;;;6.00;;
9783;SDS011;4931;44.874;-1.092;2023-10-13T12:14:13;18.83;;;5.78;;
9783;SDS011;4931;44.874;-1.092;2023-10-13T12:16:47;16.52;;;5.82;;
9783;SDS011;4931;44.874;-1.092;2023-10-13T12:19:16;22.33;;;5.97;;
9783;SDS011;4931;44.874;-1.092;2023-10-13T12:21:48;17.00;;;5.85;;
9783;SDS011;4931;44.874;-1.092;2023-10-13T12:24:24;13.90;;;5.57;;
9783;SDS011;4931;44.874;-1.092;2023-10-13T12:27:01;24.25;;;6.00;;
9783;SDS011;4931;44.874;-1.092;2023-10-13T12:29:49;21.48;;;5.70;;
9783;SDS011;4931;44.874;-1.092;2023-10-13T12:32:17;22.17;;;6.25;;
9783;SDS011;4931;44.874;-1.092;2023-10-13T12:34:50;17.67;;;5.93;;
9783;SDS011;4931;44.874;-1.092;2023-10-13T12:37:26;18.50;;;6.35;;
9783;SDS011;4931;44.874;-1.092;2023-10-13T12:40:09;18.73;;;5.80;;
9783;SDS011;4931;44.874;-1.092;2023-10-13T12:42:54;16.70;;;5.55;;
9783;SDS011;4931;44.874;-1.092;2023-10-13T12:45:41;20.05;;;6.07;;
9783;SDS011;4931;44.874;-1.092;2023-10-13T12:48:32;21.73;;;5.85;;
9783;SDS011;4931;44.874;-1.092;2023-10-13T12:51:18;19.50;;;6.22;;
9783;SDS011;4931;44.874;-1.092;2023-10-13T12:53:50;16.83;;;5.88;;
9783;SDS011;4931;44.874;-1.092;2023-10-13T12:56:16;22.98;;;6.93;;
9783;SDS011;4931;44.874;-1.092;2023-10-13T12:58:43;16.67;;;6.88;;
9783;SDS011;4931;44.874;-1.092;2023-10-13T13:01:22;23.73;;;6.68;;
9783;SDS011;4931;44.874;-1.092;2023-10-13T13:03:50;18.90;;;6.72;;
9783;SDS011;4931;44.874;-1.092;2023-10-13T13:06:20;19.52;;;7.28;;
9783;SDS011;4931;44.874;-1.092;2023-10-13T13:08:51;21.58;;;8.02;;
9783;SDS011;4931;44.874;-1.092;2023-10-13T13:11:20;20.02;;;7.70;;
9783;SDS011;4931;44.874;-1.092;2023-10-13T13:13:46;23.02;;;8.10;;
9783;SDS011;4931;44.874;-1.092;2023-10-13T13:16:15;23.33;;;8.30;;
9783;SDS011;4931;44.874;-1.092;2023-10-13T13:18:52;22.45;;;8.85;;
9783;SDS011;4931;44.874;-1.092;2023-10-13T13:21:20;23.45;;;9.70;;
9783;SDS011;4931;44.874;-1.092;2023-10-13T13:23:51;22.23;;;9.10;;
9783;SDS011;4931;44.874;-1.092;2023-10-13T13:26:20;25.73;;;10.20;;
9783;SDS011;4931;44.874;-1.092;2023-10-13T13:28:46;26.10;;;10.23;;
9783;SDS011;4931;44.874;-1.092;2023-10-13T13:31:19;23.73;;;10.55;;
9783;SDS011;4931;44.874;-1.092;2023-10-13T13:33:50;27.42;;;11.48;;
9783;SDS011;4931;44.874;-1.092;2023-10-13T13:36:15;30.13;;;10.40;;
9783;SDS011;4931;44.874;-1.092;2023-10-13T13:38:41;20.42;;;10.38;;
9783;SDS011;4931;44.874;-1.092;2023-10-13T13:41:14;23.80;;;12.03;;
9783;SDS011;4931;44.874;-1.092;2023-10-13T13:43:50;26.55;;;11.73;;
9783;SDS011;4931;44.874;-1.092;2023-10-13T13:46:20;24.45;;;12.27;;
9783;SDS011;4931;44.874;-1.092;2023-10-13T13:48:50;24.92;;;11.82;;
9783;SDS011;4931;44.874;-1.092;2023-10-13T13:51:16;24.27;;;12.18;;
9783;SDS011;4931;44.874;-1.092;2023-10-13T13:53:51;26.42;;;13.40;;
9783;SDS011;4931;44.874;-1.092;2023-10-13T13:56:18;23.30;;;11.63;;
9783;SDS011;4931;44.874;-1.092;2023-10-13T13:58:44;21.30;;;12.35;;
9783;SDS011;4931;44.874;-1.092;2023-10-13T14:01:11;25.10;;;13.57;;
9783;SDS011;4931;44.874;-1.092;2023-10-13T14:03:43;20.85;;;11.10;;
9783;SDS011;4931;44.874;-1.092;2023-10-13T14:06:11;23.13;;;10.60;;
9783;SDS011;4931;44.874;-1.092;2023-10-13T14:08:48;22.70;;;10.35;;
9783;SDS011;4931;44.874;-1.092;2023-10-13T14:11:17;20.35;;;9.23;;
9783;SDS011;4931;44.874;-1.092;2023-10-13T14:14:01;22.85;;;9.02;;
9783;SDS011;4931;44.874;-1.092;2023-10-13T14:16:29;21.63;;;8.10;;
9783;SDS011;4931;44.874;-1.092;2023-10-13T14:18:58;25.25;;;8.95;;
9783;SDS011;4931;44.874;-1.092;2023-10-13T14:21:26;23.42;;;8.23;;
9783;SDS011;4931;44.874;-1.092;2023-10-13T14:23:53;19.58;;;7.78;;
9783;SDS011;4931;44.874;-1.092;2023-10-13T14:26:19;16.75;;;7.90;;
9783;SDS011;4931;44.874;-1.092;2023-10-13T14:28:46;20.38;;;7.35;;
9783;SDS011;4931;44.874;-1.092;2023-10-13T14:31:37;25.80;;;7.50;;
9783;SDS011;4931;44.874;-1.092;2023-10-13T14:34:04;17.30;;;7.07;;
9783;SDS011;4931;44.874;-1.092;2023-10-13T14:36:30;23.85;;;7.07;;
9783;SDS011;4931;44.874;-1.092;2023-10-13T14:38:59;20.13;;;7.40;;
9783;SDS011;4931;44.874;-1.092;2023-10-13T14:41:26;36.92;;;7.25;;
9783;SDS011;4931;44.874;-1.092;2023-10-13T14:43:51;23.98;;;7.20;;
9783;SDS011;4931;44.874;-1.092;2023-10-13T14:46:17;26.02;;;7.45;;
9783;SDS011;4931;44.874;-1.092;2023-10-13T14:51:14;27.80;;;7.50;;
9783;SDS011;4931;44.874;-1.092;2023-10-13T14:53:45;26.77;;;7.80;;
9783;SDS011;4931;44.874;-1.092;2023-10-13T14:56:12;18.67;;;7.32;;
9783;SDS011;4931;44.874;-1.092;2023-10-13T14:58:38;20.33;;;8.45;;
9783;SDS011;4931;44.874;-1.092;2023-10-13T15:01:10;27.50;;;9.18;;
9783;SDS011;4931;44.874;-1.092;2023-10-13T15:03:43;24.85;;;8.60;;
9783;SDS011;4931;44.874;-1.092;2023-10-13T15:08:45;24.90;;;8.05;;
9783;SDS011;4931;44.874;-1.092;2023-10-13T15:11:14;23.98;;;8.40;;
9783;SDS011;4931;44.874;-1.092;2023-10-13T15:13:43;22.23;;;8.00;;
9783;SDS011;4931;44.874;-1.092;2023-10-13T15:16:15;27.10;;;8.18;;
9783;SDS011;4931;44.874;-1.092;2023-10-13T15:18:42;27.25;;;9.32;;
9783;SDS011;4931;44.874;-1.092;2023-10-13T15:21:11;23.33;;;8.65;;
9783;SDS011;4931;44.874;-1.092;2023-10-13T15:23:48;28.20;;;9.05;;
9783;SDS011;4931;44.874;-1.092;2023-10-13T15:26:16;25.25;;;9.32;;
9783;SDS011;4931;44.874;-1.092;2023-10-13T15:28:46;24.83;;;9.82;;
9783;SDS011;4931;44.874;-1.092;2023-10-13T15:31:18;24.40;;;9.65;;
9783;SDS011;4931;44.874;-1.092;2023-10-13T15:33:59;28.10;;;10.48;;
9783;SDS011;4931;44.874;-1.092;2023-10-13T15:36:31;29.02;;;10.43;;
9783;SDS011;4931;44.874;-1.092;2023-10-13T15:39:00;25.95;;;10.75;;
9783;SDS011;4931;44.874;-1.092;2023-10-13T15:41:26;23.88;;;10.93;;
9783;SDS011;4931;44.874;-1.092;2023-10-13T15:43:53;27.98;;;11.15;;
9783;SDS011;4931;44.874;-1.092;2023-10-13T15:46:20;28.05;;;11.65;;
9783;SDS011;4931;44.874;-1.092;2023-10-13T15:48:47;30.80;;;12.35;;
9783;SDS011;4931;44.874;-1.092;2023-10-13T15:51:13;30.02;;;12.27;;
9783;SDS011;4931;44.874;-1.092;2023-10-13T15:53:39;31.45;;;12.43;;
9783;SDS011;4931;44.874;-1.092;2023-10-13T15:56:05;32.88;;;13.05;;
9783;SDS011;4931;44.874;-1.092;2023-10-13T15:58:40;31.85;;;13.55;;
9783;SDS011;4931;44.874;-1.092;2023-10-13T16:01:09;38.70;;;15.02;;